Time;durP1;ratioP1;P1;durP2;ratioP2;P2;SDS_P1;SDS_P2;PMS_P1;PMS_P2;Temp;Humidity;BMP_temperature;BMP_pressure;BME280_temperature;BME280_humidity;BME280_pressure;Samples;Min_cycle;Max_cycle;Signal;HPM_P1;HPM_P2
2021/10/25 00:01:47;;;;;;;2.43;1.30;;;7.10;86.20;;;;;;5025633;28;20196;-67
2021/10/25 00:04:13;;;;;;;2.10;1.43;;;7.10;86.60;;;;;;5027307;28;20241;-68
2021/10/25 00:06:38;;;;;;;1.63;1.47;;;7.00;86.90;;;;;;5029220;28;20192;-67
2021/10/25 00:09:04;;;;;;;1.97;1.50;;;6.90;86.90;;;;;;5024939;28;20183;-67
2021/10/25 00:11:31;;;;;;;1.47;1.37;;;6.90;87.20;;;;;;5025848;28;20184;-68
2021/10/25 00:13:56;;;;;;;1.47;1.37;;;6.90;87.10;;;;;;5028136;28;20749;-68
2021/10/25 00:16:22;;;;;;;1.67;1.57;;;6.80;87.40;;;;;;5027850;28;20259;-67
2021/10/25 00:18:48;;;;;;;1.13;1.13;;;6.80;87.60;;;;;;5028160;28;20184;-68
2021/10/25 00:21:14;;;;;;;2.23;1.30;;;6.80;87.80;;;;;;5023117;28;20315;-67
2021/10/25 00:23:39;;;;;;;1.47;1.40;;;6.80;87.70;;;;;;5026741;28;20962;-67
2021/10/25 00:26:05;;;;;;;1.40;1.30;;;6.70;88.10;;;;;;5025838;28;20180;-67
2021/10/25 00:28:31;;;;;;;1.03;1.03;;;6.70;88.10;;;;;;5027402;28;20236;-67
2021/10/25 00:30:57;;;;;;;1.83;1.73;;;6.70;88.20;;;;;;5024157;28;20267;-67
2021/10/25 00:33:22;;;;;;;1.70;1.60;;;6.70;88.00;;;;;;5024881;28;20203;-67
2021/10/25 00:35:48;;;;;;;1.00;1.00;;;6.70;88.10;;;;;;5027283;28;20832;-67
2021/10/25 00:38:15;;;;;;;1.33;1.20;;;6.70;88.20;;;;;;5022910;28;20184;-66
2021/10/25 00:40:42;;;;;;;1.07;1.07;;;6.70;88.10;;;;;;5024692;28;20184;-68
2021/10/25 00:43:08;;;;;;;1.30;1.30;;;6.70;88.00;;;;;;5025643;28;20184;-67
2021/10/25 00:45:34;;;;;;;1.47;1.47;;;6.70;88.00;;;;;;5025803;28;20215;-69
2021/10/25 00:47:59;;;;;;;1.80;1.70;;;6.70;88.10;;;;;;5027809;28;20188;-68
2021/10/25 00:50:25;;;;;;;1.60;1.50;;;6.60;88.20;;;;;;5025956;28;20184;-69
2021/10/25 00:52:51;;;;;;;1.03;1.03;;;6.60;88.40;;;;;;5025166;28;20955;-67
2021/10/25 00:55:18;;;;;;;1.43;1.40;;;6.60;88.40;;;;;;5027837;28;20239;-66
2021/10/25 00:57:44;;;;;;;1.90;1.73;;;6.50;88.40;;;;;;5025861;28;20187;-66
2021/10/25 01:00:11;;;;;;;1.30;1.30;;;6.50;88.40;;;;;;5024856;28;20176;-67
2021/10/25 01:02:38;;;;;;;4.10;1.33;;;6.50;88.50;;;;;;5025773;28;20264;-67
2021/10/25 01:05:05;;;;;;;1.43;1.33;;;6.40;88.50;;;;;;5026401;28;20184;-67
2021/10/25 01:07:31;;;;;;;3.10;1.43;;;6.30;88.80;;;;;;5025259;28;20180;-67
2021/10/25 01:09:57;;;;;;;1.53;1.30;;;6.30;88.90;;;;;;5026079;28;20234;-67
2021/10/25 01:12:23;;;;;;;1.27;1.27;;;6.20;89.20;;;;;;5025319;28;20310;-68
2021/10/25 01:14:49;;;;;;;4.00;1.53;;;6.20;89.30;;;;;;5022857;28;20213;-68
2021/10/25 01:17:15;;;;;;;2.87;1.47;;;6.10;89.20;;;;;;5023694;28;20829;-68
2021/10/25 01:19:41;;;;;;;1.50;1.40;;;6.10;89.00;;;;;;5026052;28;20182;-68
2021/10/25 01:22:06;;;;;;;3.73;1.43;;;6.10;89.50;;;;;;5027221;28;20181;-68
2021/10/25 01:24:32;;;;;;;3.00;1.17;;;6.10;89.70;;;;;;5027993;28;20184;-68
2021/10/25 01:26:59;;;;;;;1.33;1.30;;;6.00;89.70;;;;;;5024485;28;20999;-68
2021/10/25 01:29:24;;;;;;;1.80;1.67;;;6.00;89.50;;;;;;5023535;28;20180;-68
2021/10/25 01:31:51;;;;;;;2.00;1.50;;;5.90;90.20;;;;;;5024527;28;20274;-68
2021/10/25 01:34:16;;;;;;;2.43;1.80;;;5.90;90.20;;;;;;5024355;28;20311;-69
2021/10/25 01:36:42;;;;;;;1.70;1.70;;;5.90;90.30;;;;;;5026999;28;20263;-68
2021/10/25 01:39:09;;;;;;;1.33;1.33;;;5.90;90.20;;;;;;5023724;28;20192;-69
2021/10/25 01:41:36;;;;;;;1.20;1.17;;;5.90;90.10;;;;;;5023844;28;20228;-68
2021/10/25 01:44:02;;;;;;;1.33;1.03;;;5.90;90.30;;;;;;5024875;28;20587;-68
2021/10/25 01:46:29;;;;;;;1.30;1.30;;;5.90;90.40;;;;;;5026470;28;20181;-68
2021/10/25 01:48:55;;;;;;;1.67;1.57;;;5.80;90.50;;;;;;5024935;28;20180;-68
2021/10/25 01:51:21;;;;;;;1.33;1.23;;;5.80;90.40;;;;;;5025397;28;20285;-68
2021/10/25 01:53:47;;;;;;;1.43;1.27;;;5.80;90.50;;;;;;5021709;28;20227;-68
2021/10/25 01:56:13;;;;;;;1.30;1.30;;;5.80;90.50;;;;;;5025186;28;20172;-68
2021/10/25 01:58:39;;;;;;;1.43;1.33;;;5.80;90.60;;;;;;5024719;28;20580;-68
2021/10/25 02:01:06;;;;;;;3.83;1.17;;;5.80;90.70;;;;;;5023107;28;20662;-68
2021/10/25 02:03:34;;;;;;;1.47;1.37;;;5.70;90.80;;;;;;5023294;28;20564;-68
2021/10/25 02:06:01;;;;;;;1.53;1.43;;;5.70;90.70;;;;;;5026289;28;20179;-68
2021/10/25 02:08:27;;;;;;;1.50;1.50;;;5.70;90.90;;;;;;5023493;28;20585;-68
2021/10/25 02:10:52;;;;;;;1.30;1.27;;;5.70;90.80;;;;;;5024362;28;20192;-68
2021/10/25 02:13:19;;;;;;;1.83;1.30;;;5.70;90.80;;;;;;5026986;28;20195;-69
2021/10/25 02:15:46;;;;;;;1.00;1.00;;;5.60;90.80;;;;;;5025588;28;20785;-68
2021/10/25 02:18:16;;;;;;;1.37;1.27;;;5.60;91.00;;;;;;5023951;28;20208;-68
2021/10/25 02:20:43;;;;;;;1.40;1.40;;;5.60;90.80;;;;;;5024788;28;20188;-69
2021/10/25 02:23:09;;;;;;;3.23;1.10;;;5.60;91.00;;;;;;5027993;28;20198;-67
2021/10/25 02:25:36;;;;;;;1.73;1.63;;;5.60;91.10;;;;;;5026796;28;20188;-67
2021/10/25 02:28:02;;;;;;;2.13;1.70;;;5.50;91.00;;;;;;5022021;28;20611;-68
2021/10/25 02:30:29;;;;;;;1.10;1.10;;;5.50;91.30;;;;;;5019864;28;20184;-68
2021/10/25 02:32:56;;;;;;;5.43;1.20;;;5.50;91.20;;;;;;5026144;28;20188;-69
2021/10/25 02:35:22;;;;;;;2.07;1.37;;;5.50;91.50;;;;;;5021411;28;20296;-68
2021/10/25 02:37:48;;;;;;;1.50;1.40;;;5.50;91.60;;;;;;5024782;28;20311;-68
2021/10/25 02:40:14;;;;;;;4.43;1.30;;;5.50;91.60;;;;;;5025148;28;20238;-67
2021/10/25 02:42:39;;;;;;;1.10;1.10;;;5.40;91.90;;;;;;5024033;28;20191;-68
2021/10/25 02:45:05;;;;;;;1.03;1.03;;;5.40;91.80;;;;;;5022627;28;20184;-68
2021/10/25 02:47:31;;;;;;;2.03;1.40;;;5.40;92.00;;;;;;5021587;28;20929;-68
2021/10/25 02:49:57;;;;;;;1.57;1.30;;;5.30;92.40;;;;;;5022675;28;20184;-68
2021/10/25 02:52:23;;;;;;;1.47;1.37;;;5.30;92.40;;;;;;5025397;28;20173;-67
2021/10/25 02:54:49;;;;;;;1.53;1.33;;;5.30;92.40;;;;;;5022206;28;20223;-67
2021/10/25 02:57:16;;;;;;;1.70;1.60;;;5.30;92.30;;;;;;5024100;28;20207;-69
2021/10/25 02:59:42;;;;;;;1.40;1.33;;;5.40;92.20;;;;;;5026134;28;20179;-69
2021/10/25 03:02:09;;;;;;;1.20;1.10;;;5.30;92.40;;;;;;5022706;28;20274;-68
2021/10/25 03:04:35;;;;;;;1.43;1.33;;;5.40;92.20;;;;;;5025207;28;20188;-68
2021/10/25 03:07:01;;;;;;;1.20;1.10;;;5.30;92.50;;;;;;5023346;28;20318;-68
2021/10/25 03:09:27;;;;;;;1.57;1.47;;;5.30;92.40;;;;;;5037014;28;20691;-69
2021/10/25 03:11:53;;;;;;;1.97;1.20;;;5.30;92.50;;;;;;5023976;28;20227;-68
2021/10/25 03:14:19;;;;;;;1.53;1.20;;;5.30;92.60;;;;;;5024899;28;20208;-67
2021/10/25 03:16:44;;;;;;;1.53;1.13;;;5.30;92.80;;;;;;5023929;28;20195;-67
2021/10/25 03:19:10;;;;;;;5.03;1.20;;;5.30;92.60;;;;;;5026519;28;20747;-69
2021/10/25 03:21:36;;;;;;;1.53;1.10;;;5.30;92.30;;;;;;5025013;28;20538;-69
2021/10/25 03:24:02;;;;;;;1.40;1.00;;;5.30;92.40;;;;;;5025974;28;20235;-67
2021/10/25 03:26:28;;;;;;;1.47;1.20;;;5.30;92.60;;;;;;5026924;28;20279;-68
2021/10/25 03:28:54;;;;;;;1.13;1.03;;;5.30;92.30;;;;;;5025149;28;20250;-67
2021/10/25 03:31:21;;;;;;;1.20;1.17;;;5.30;92.40;;;;;;5026191;28;20692;-68
2021/10/25 03:33:47;;;;;;;1.30;1.30;;;5.30;92.50;;;;;;5027695;28;20188;-68
2021/10/25 03:36:16;;;;;;;5.53;1.33;;;5.20;92.40;;;;;;5029339;28;20271;-67
2021/10/25 03:38:43;;;;;;;4.90;0.97;;;5.20;92.40;;;;;;5028543;28;20184;-68
2021/10/25 03:41:22;;;;;;;2.40;1.03;;;5.20;92.50;;;;;;5029060;28;20176;-68
2021/10/25 03:51:59;;;;;;;1.27;1.27;;;5.20;92.90;;;;;;4955475;28;20202;-69
2021/10/25 03:54:36;;;;;;;1.60;1.50;;;5.20;93.10;;;;;;4954073;28;20223;-67
2021/10/25 04:13:07;;;;;;;1.73;1.40;;;5.10;93.30;;;;;;4955239;28;20193;-67
2021/10/25 04:29:20;;;;;;;3.50;1.60;;;5.10;94.20;;;;;;4932679;29;20193;-68
2021/10/25 04:31:46;;;;;;;2.40;1.87;;;5.10;94.20;;;;;;4929640;29;20211;-68
2021/10/25 04:34:11;;;;;;;1.37;1.37;;;5.10;94.10;;;;;;4932546;29;20235;-68
2021/10/25 04:36:37;;;;;;;1.10;1.10;;;5.10;94.10;;;;;;4934140;29;20336;-69
2021/10/25 04:39:07;;;;;;;1.60;1.50;;;5.20;94.20;;;;;;4937699;29;20222;-68
2021/10/25 04:41:32;;;;;;;1.03;1.03;;;5.20;93.90;;;;;;4931014;29;20243;-68
2021/10/25 04:43:58;;;;;;;1.17;1.17;;;5.20;94.00;;;;;;4937655;29;20651;-68
2021/10/25 04:46:24;;;;;;;1.13;1.13;;;5.20;94.30;;;;;;4934221;29;20187;-68
2021/10/25 04:48:49;;;;;;;2.30;1.90;;;5.20;94.30;;;;;;4936323;29;20199;-68
2021/10/25 04:51:15;;;;;;;1.50;1.40;;;5.20;94.60;;;;;;4940127;29;20253;-68
2021/10/25 04:53:41;;;;;;;1.83;1.63;;;5.20;94.30;;;;;;4932621;29;20183;-68
2021/10/25 04:56:06;;;;;;;1.17;1.17;;;5.20;94.00;;;;;;5005012;28;20228;-68
2021/10/25 04:58:32;;;;;;;1.50;1.40;;;5.20;94.10;;;;;;5028215;28;20191;-67
2021/10/25 05:00:58;;;;;;;1.50;1.40;;;5.20;94.10;;;;;;5022161;28;20185;-68
2021/10/25 05:03:23;;;;;;;1.77;1.63;;;5.20;94.10;;;;;;5026942;28;20188;-68
2021/10/25 05:05:49;;;;;;;2.30;1.30;;;5.20;93.80;;;;;;5027041;28;20541;-67
2021/10/25 05:08:15;;;;;;;1.60;1.53;;;5.20;93.90;;;;;;5026658;28;20181;-68
2021/10/25 05:10:41;;;;;;;2.33;1.83;;;5.20;93.70;;;;;;5027210;28;20192;-70
2021/10/25 05:13:06;;;;;;;6.50;1.33;;;5.20;94.00;;;;;;5027222;28;20215;-69
2021/10/25 05:15:33;;;;;;;4.37;2.20;;;5.20;94.20;;;;;;5024238;28;20713;-68
2021/10/25 05:17:58;;;;;;;1.50;1.40;;;5.20;94.40;;;;;;5026578;28;20242;-68
2021/10/25 05:20:24;;;;;;;1.80;1.70;;;5.20;94.40;;;;;;5023073;28;20193;-69
2021/10/25 05:22:50;;;;;;;1.33;1.30;;;5.30;94.20;;;;;;5028572;28;20898;-69
2021/10/25 05:25:15;;;;;;;1.60;1.50;;;5.30;94.00;;;;;;5027575;28;20220;-68
2021/10/25 05:27:41;;;;;;;1.77;1.67;;;5.30;94.10;;;;;;5026330;28;20180;-69
2021/10/25 05:30:08;;;;;;;2.97;1.60;;;5.30;94.20;;;;;;5024767;28;20184;-69
2021/10/25 05:32:33;;;;;;;5.93;2.17;;;5.40;94.20;;;;;;5023987;28;20192;-69
2021/10/25 05:34:59;;;;;;;5.83;1.87;;;5.40;94.30;;;;;;5024763;28;20220;-68
2021/10/25 05:37:25;;;;;;;2.10;1.87;;;5.40;94.20;;;;;;5023755;28;20188;-68
2021/10/25 05:39:50;;;;;;;1.37;1.37;;;5.50;94.00;;;;;;5021366;28;20184;-69
2021/10/25 05:42:16;;;;;;;1.40;1.40;;;5.50;94.00;;;;;;5023308;28;20246;-69
2021/10/25 05:44:42;;;;;;;2.23;2.13;;;5.60;93.80;;;;;;5025889;28;20202;-69
2021/10/25 05:47:07;;;;;;;2.10;2.00;;;5.60;93.70;;;;;;5021900;28;20225;-69
2021/10/25 05:49:34;;;;;;;2.40;1.53;;;5.70;93.60;;;;;;5024669;28;20181;-70
2021/10/25 05:52:00;;;;;;;1.80;1.70;;;5.70;93.80;;;;;;5023210;28;20277;-72
2021/10/25 05:54:26;;;;;;;3.50;1.67;;;5.80;93.50;;;;;;5021540;28;20306;-71
2021/10/25 05:56:53;;;;;;;1.57;1.50;;;5.90;93.40;;;;;;5017241;28;20327;-70
2021/10/25 05:59:24;;;;;;;5.23;1.93;;;5.90;93.10;;;;;;5023415;28;20176;-71
2021/10/25 06:04:48;;;;;;;1.30;1.30;;;6.10;92.10;;;;;;4999856;28;20223;-72
2021/10/25 06:07:14;;;;;;;1.57;1.47;;;6.20;92.10;;;;;;4998970;28;20189;-72
2021/10/25 06:09:41;;;;;;;2.07;1.97;;;6.30;92.10;;;;;;4999463;28;20188;-71
2021/10/25 06:12:11;;;;;;;2.57;2.27;;;6.40;91.60;;;;;;5000367;28;20280;-71
2021/10/25 06:14:40;;;;;;;2.87;1.60;;;6.40;91.10;;;;;;4985192;28;20579;-71
2021/10/25 06:17:21;;;;;;;1.50;1.40;;;6.60;91.00;;;;;;4997998;28;20186;-70
2021/10/25 06:19:48;;;;;;;2.30;1.90;;;6.70;90.80;;;;;;4998233;28;20185;-70
2021/10/25 06:22:15;;;;;;;4.07;1.80;;;6.80;89.80;;;;;;5000389;28;20247;-72
2021/10/25 06:24:41;;;;;;;1.80;1.70;;;6.90;89.60;;;;;;4998890;28;20227;-71
2021/10/25 06:27:07;;;;;;;1.97;1.87;;;7.00;89.80;;;;;;4999473;28;20189;-72
2021/10/25 06:29:33;;;;;;;1.67;1.67;;;7.10;89.30;;;;;;5001050;28;20185;-71
2021/10/25 06:31:58;;;;;;;1.90;1.80;;;7.10;89.00;;;;;;4999593;28;20809;-71
2021/10/25 06:34:26;;;;;;;6.53;1.93;;;7.20;88.80;;;;;;4999309;28;20282;-73
2021/10/25 06:36:53;;;;;;;2.60;1.87;;;7.30;88.80;;;;;;4999715;28;20180;-71
2021/10/25 06:39:28;;;;;;;7.17;1.67;;;7.40;87.70;;;;;;4999193;28;20181;-72
2021/10/25 06:41:53;;;;;;;2.07;1.97;;;7.50;88.00;;;;;;5021775;28;20190;-71
2021/10/25 06:44:20;;;;;;;7.10;1.90;;;7.60;87.60;;;;;;5026213;28;20189;-72
2021/10/25 06:46:46;;;;;;;2.00;1.80;;;7.70;86.90;;;;;;5024256;28;20219;-71
2021/10/25 06:49:11;;;;;;;2.13;1.70;;;7.90;86.30;;;;;;5023048;28;20172;-71
2021/10/25 06:51:38;;;;;;;4.03;2.00;;;8.20;85.90;;;;;;5027192;28;20242;-71
2021/10/25 06:54:04;;;;;;;4.07;2.10;;;8.40;85.60;;;;;;5025314;28;20176;-71
2021/10/25 06:56:30;;;;;;;2.67;2.23;;;8.70;84.20;;;;;;5024164;28;20176;-71
2021/10/25 06:58:56;;;;;;;2.93;1.97;;;9.10;83.10;;;;;;5025306;28;20796;-72
2021/10/25 07:01:23;;;;;;;2.47;2.37;;;9.40;82.20;;;;;;5028591;28;20188;-71
2021/10/25 07:03:49;;;;;;;2.40;2.20;;;9.60;81.10;;;;;;5027668;28;20188;-72
2021/10/25 07:06:17;;;;;;;3.00;2.67;;;9.90;81.40;;;;;;5028595;28;20191;-71
2021/10/25 07:08:45;;;;;;;2.70;2.53;;;10.30;79.10;;;;;;5026808;28;20292;-69
2021/10/25 07:11:14;;;;;;;2.03;1.93;;;10.70;79.60;;;;;;5026299;28;20180;-72
2021/10/25 07:13:45;;;;;;;2.40;2.30;;;11.00;79.10;;;;;;5028899;28;20563;-72
2021/10/25 07:16:18;;;;;;;2.33;2.22;;;11.40;77.80;;;;;;5026340;28;20235;-71
2021/10/25 07:19:16;;;;;;;2.92;2.70;;;11.80;76.30;;;;;;5028127;28;20184;-71
2021/10/25 08:07:23;;;;;;;2.90;1.92;;;15.60;65.10;;;;;;4987970;28;20279;-72
2021/10/25 08:09:53;;;;;;;2.22;1.92;;;16.00;63.80;;;;;;4987993;28;20189;-72
2021/10/25 08:12:24;;;;;;;2.35;2.10;;;16.40;63.10;;;;;;4991319;28;20212;-71
2021/10/25 08:14:56;;;;;;;3.38;2.35;;;16.50;61.40;;;;;;4987410;28;20694;-71
2021/10/25 08:17:24;;;;;;;2.15;2.05;;;16.60;61.50;;;;;;4992462;28;20681;-72
2021/10/25 08:19:50;;;;;;;2.03;1.92;;;16.90;62.30;;;;;;4988951;28;20565;-72
2021/10/25 08:22:17;;;;;;;5.13;2.38;;;17.40;60.70;;;;;;4983249;28;20200;-73
2021/10/25 08:24:46;;;;;;;2.22;2.13;;;17.80;60.40;;;;;;4993859;28;20197;-73
2021/10/25 08:27:14;;;;;;;2.28;2.08;;;18.20;61.20;;;;;;5026043;28;20180;-72
2021/10/25 08:29:40;;;;;;;2.10;2.05;;;18.40;58.30;;;;;;5028708;28;20614;-72
2021/10/25 08:39:52;;;;;;;2.05;1.90;;;19.00;55.40;;;;;;5028948;28;20246;-72
2021/10/25 08:42:24;;;;;;;2.35;2.25;;;19.10;57.40;;;;;;5030382;28;20188;-72
2021/10/25 08:45:00;;;;;;;5.22;2.05;;;19.20;55.00;;;;;;5026199;28;20180;-73
2021/10/25 08:47:34;;;;;;;2.65;2.33;;;19.00;56.00;;;;;;5025603;28;20184;-73
2021/10/25 08:50:04;;;;;;;2.17;1.80;;;19.10;56.90;;;;;;5027224;28;20172;-72
2021/10/25 08:52:30;;;;;;;2.47;1.58;;;19.40;56.80;;;;;;5023588;28;20196;-73
2021/10/25 08:54:55;;;;;;;1.80;1.70;;;19.70;57.00;;;;;;5022223;28;20224;-73
2021/10/25 08:57:23;;;;;;;3.28;1.70;;;20.20;55.80;;;;;;5027152;28;20184;-73
2021/10/25 09:00:19;;;;;;;1.90;1.42;;;20.60;55.10;;;;;;5025060;28;20764;-73
2021/10/25 09:02:57;;;;;;;1.45;1.45;;;21.00;53.80;;;;;;5006085;28;20618;-73
2021/10/25 09:05:23;;;;;;;1.75;1.65;;;21.40;52.80;;;;;;5002341;28;20272;-73
2021/10/25 09:07:54;;;;;;;1.63;1.52;;;21.60;51.50;;;;;;5001564;28;20204;-71
2021/10/25 09:10:32;;;;;;;1.90;1.42;;;21.70;50.10;;;;;;5001657;28;20188;-72
2021/10/25 09:13:02;;;;;;;3.17;1.65;;;21.40;52.40;;;;;;5005015;28;20235;-72
2021/10/25 09:15:33;;;;;;;1.45;1.27;;;21.60;53.50;;;;;;5004277;28;20986;-72
2021/10/25 09:18:11;;;;;;;3.83;1.90;;;22.10;52.10;;;;;;5003203;28;20191;-72
2021/10/25 09:20:47;;;;;;;2.45;1.23;;;22.40;51.10;;;;;;5004853;28;20211;-72
2021/10/25 09:23:16;;;;;;;1.70;1.65;;;22.70;49.30;;;;;;5002236;28;20264;-71
2021/10/25 09:25:42;;;;;;;1.27;1.27;;;22.70;49.50;;;;;;5001003;28;20196;-72
2021/10/25 09:28:19;;;;;;;1.60;1.60;;;22.40;50.40;;;;;;5002842;28;20633;-72
2021/10/25 09:30:50;;;;;;;2.80;1.40;;;22.50;51.70;;;;;;5002005;28;20199;-71
2021/10/25 09:33:21;;;;;;;1.48;1.38;;;22.80;49.60;;;;;;5000300;28;20585;-71
2021/10/25 09:35:57;;;;;;;2.00;1.60;;;23.10;50.00;;;;;;5003611;28;20208;-72
2021/10/25 09:49:32;;;;;;;2.05;0.85;;;22.90;47.40;;;;;;4960209;28;20249;-73
2021/10/25 09:52:00;;;;;;;1.30;1.15;;;22.50;47.20;;;;;;4963646;28;20191;-73
2021/10/25 09:54:28;;;;;;;1.25;1.10;;;22.50;46.60;;;;;;4963978;28;20248;-71
2021/10/25 09:57:09;;;;;;;0.93;0.93;;;22.20;47.80;;;;;;4964376;28;20194;-73
2021/10/25 09:59:56;;;;;;;1.67;1.45;;;22.20;48.70;;;;;;4963094;28;20281;-74
2021/10/25 10:02:22;;;;;;;1.58;1.13;;;22.40;49.60;;;;;;4962140;28;20202;-73
2021/10/25 10:04:58;;;;;;;1.30;0.90;;;22.90;48.00;;;;;;4947788;28;20182;-72
2021/10/25 10:07:27;;;;;;;2.50;1.08;;;23.30;47.60;;;;;;4964010;28;20667;-73
2021/10/25 10:09:54;;;;;;;1.60;1.05;;;23.10;46.90;;;;;;4961919;28;20190;-72
2021/10/25 10:12:22;;;;;;;1.40;1.30;;;22.80;48.50;;;;;;4966361;28;20191;-73
2021/10/25 10:14:53;;;;;;;0.93;0.82;;;22.90;48.60;;;;;;4961825;28;20218;-73
2021/10/25 10:17:26;;;;;;;3.85;1.65;;;23.00;48.50;;;;;;4960904;28;20273;-72
2021/10/25 10:19:52;;;;;;;1.00;1.00;;;23.30;47.70;;;;;;4960585;28;20198;-73
2021/10/25 10:22:21;;;;;;;0.82;0.73;;;23.50;47.40;;;;;;4964297;28;20793;-73
2021/10/25 10:24:49;;;;;;;0.88;0.88;;;23.70;46.20;;;;;;4963149;28;20219;-73
2021/10/25 10:27:22;;;;;;;0.65;0.65;;;23.40;48.10;;;;;;5012132;28;20283;-71
2021/10/25 10:29:59;;;;;;;2.45;1.23;;;23.40;48.20;;;;;;5018882;28;20598;-72
2021/10/25 10:32:31;;;;;;;1.13;1.10;;;23.70;48.40;;;;;;5022138;28;20179;-72
2021/10/25 10:35:03;;;;;;;1.45;1.33;;;24.20;48.30;;;;;;5021690;28;20220;-73
2021/10/25 10:37:32;;;;;;;1.33;1.33;;;24.60;45.40;;;;;;5019044;28;20278;-73
2021/10/25 10:40:12;;;;;;;0.82;0.82;;;24.40;46.30;;;;;;5019178;28;20188;-72
2021/10/25 10:42:42;;;;;;;1.00;1.00;;;24.40;45.50;;;;;;5016536;28;20674;-72
2021/10/25 10:45:10;;;;;;;1.25;1.25;;;23.90;44.60;;;;;;5024781;28;20173;-72
2021/10/25 10:47:45;;;;;;;1.13;1.13;;;23.60;47.50;;;;;;5017026;28;20184;-74
2021/10/25 10:50:19;;;;;;;0.98;0.98;;;23.60;48.00;;;;;;5017133;28;20183;-73
2021/10/25 10:52:50;;;;;;;2.10;1.17;;;23.90;47.70;;;;;;5031905;28;20267;-71
2021/10/25 10:55:33;;;;;;;1.30;1.00;;;24.40;47.10;;;;;;5019093;28;20219;-74
2021/10/25 11:00:40;;;;;;;1.30;1.10;;;24.80;46.60;;;;;;5021304;28;20181;-74
2021/10/25 11:03:08;;;;;;;4.90;1.30;;;25.00;44.50;;;;;;5020900;28;20192;-73
2021/10/25 11:05:39;;;;;;;0.93;0.93;;;24.90;46.70;;;;;;5022528;28;21262;-73
2021/10/25 11:08:12;;;;;;;3.53;1.45;;;25.10;47.40;;;;;;5020263;28;20263;-74
2021/10/25 11:10:39;;;;;;;1.10;1.10;;;25.40;46.50;;;;;;5021628;28;20184;-74
2021/10/25 11:13:15;;;;;;;1.20;1.20;;;25.20;45.70;;;;;;5022748;28;20215;-74
2021/10/25 11:16:00;;;;;;;1.15;1.00;;;24.90;47.30;;;;;;5019859;28;20280;-73
2021/10/25 11:18:28;;;;;;;1.38;1.25;;;24.70;46.20;;;;;;5023135;28;20588;-73
2021/10/25 11:21:18;;;;;;;0.80;0.80;;;24.70;48.50;;;;;;5023443;28;20208;-73
2021/10/25 11:23:58;;;;;;;1.33;1.15;;;24.80;46.20;;;;;;5024578;28;20180;-70
2021/10/25 11:26:30;;;;;;;1.38;1.38;;;25.00;47.60;;;;;;5020796;28;20184;-73
2021/10/25 11:29:16;;;;;;;3.50;0.82;;;25.20;47.10;;;;;;5022814;28;20562;-75
2021/10/25 11:31:50;;;;;;;1.85;1.05;;;25.40;44.00;;;;;;5019989;28;20614;-71
2021/10/25 11:34:30;;;;;;;1.45;0.88;;;25.10;45.20;;;;;;5019216;28;20226;-71
2021/10/25 11:36:58;;;;;;;1.83;1.17;;;24.70;43.80;;;;;;5019906;28;20187;-69
2021/10/25 11:39:28;;;;;;;0.73;0.73;;;24.50;44.70;;;;;;5021123;28;20194;-74
2021/10/25 11:41:54;;;;;;;1.23;1.13;;;24.10;47.00;;;;;;5022301;28;20169;-74
2021/10/25 11:44:20;;;;;;;0.73;0.73;;;24.20;46.90;;;;;;5022434;28;20272;-74
2021/10/25 11:46:46;;;;;;;1.25;1.17;;;24.50;48.60;;;;;;5026428;28;20741;-74
2021/10/25 11:49:19;;;;;;;1.17;1.10;;;24.90;47.50;;;;;;5024030;28;20184;-74
2021/10/25 11:51:52;;;;;;;1.05;1.02;;;25.20;46.30;;;;;;5026041;28;20745;-74
2021/10/25 11:54:18;;;;;;;1.55;1.45;;;25.30;46.40;;;;;;5023728;28;20188;-73
2021/10/25 11:56:52;;;;;;;1.45;1.10;;;25.50;45.30;;;;;;5023978;28;21029;-73
2021/10/25 11:59:19;;;;;;;0.68;0.68;;;25.80;45.80;;;;;;5025587;28;20184;-73
2021/10/25 12:01:46;;;;;;;1.23;0.98;;;25.90;43.70;;;;;;5025501;28;20191;-73
2021/10/25 12:04:14;;;;;;;3.20;0.90;;;25.50;45.00;;;;;;5023141;28;20188;-73
2021/10/25 12:06:40;;;;;;;1.00;0.90;;;25.30;43.50;;;;;;5025648;28;20191;-73
2021/10/25 12:09:08;;;;;;;0.98;0.73;;;24.80;45.80;;;;;;5025075;28;20271;-73
2021/10/25 12:14:24;;;;;;;0.65;0.65;;;24.60;45.70;;;;;;5020856;28;20188;-75
2021/10/25 12:16:51;;;;;;;1.98;0.82;;;24.50;46.10;;;;;;5025220;28;20180;-74
2021/10/25 12:19:17;;;;;;;1.10;0.80;;;24.50;45.40;;;;;;5025992;28;20616;-74
2021/10/25 12:21:43;;;;;;;0.80;0.80;;;24.40;44.90;;;;;;5024574;28;20184;-74
2021/10/25 12:24:10;;;;;;;0.95;0.95;;;24.40;45.00;;;;;;5023640;28;20186;-70
2021/10/25 12:26:38;;;;;;;1.30;0.70;;;24.30;45.50;;;;;;5023554;28;20180;-76
2021/10/25 12:29:18;;;;;;;1.10;0.90;;;23.90;43.60;;;;;;5021500;28;20204;-73
2021/10/25 12:31:46;;;;;;;0.80;0.80;;;23.60;44.90;;;;;;5025680;28;20181;-69
2021/10/25 12:34:14;;;;;;;0.80;0.80;;;23.50;47.40;;;;;;5020283;28;20210;-73
2021/10/25 12:36:43;;;;;;;1.73;0.90;;;23.70;47.20;;;;;;5024152;28;20215;-74
2021/10/25 12:39:18;;;;;;;0.88;0.88;;;23.70;44.20;;;;;;5024061;28;20180;-75
2021/10/25 12:41:58;;;;;;;0.70;0.70;;;23.40;46.90;;;;;;5018852;28;20193;-73
2021/10/25 12:44:36;;;;;;;0.95;0.77;;;23.60;46.20;;;;;;5019448;28;20295;-73
2021/10/25 12:47:09;;;;;;;1.70;0.98;;;23.30;44.30;;;;;;5023697;28;20184;-73
2021/10/25 12:49:34;;;;;;;0.98;0.80;;;23.20;47.40;;;;;;5020772;28;20187;-73
2021/10/25 12:52:08;;;;;;;0.73;0.73;;;23.20;45.10;;;;;;5020310;28;20215;-73
2021/10/25 12:54:38;;;;;;;4.65;0.95;;;23.00;45.00;;;;;;5024836;28;20266;-74
2021/10/25 12:57:22;;;;;;;0.90;0.90;;;22.80;45.80;;;;;;5021827;28;20188;-75
2021/10/25 13:00:20;;;;;;;1.33;0.82;;;22.70;45.20;;;;;;5021627;28;20214;-74
2021/10/25 13:02:52;;;;;;;0.60;0.60;;;22.80;44.90;;;;;;4978342;28;20591;-74
2021/10/25 13:05:32;;;;;;;1.48;0.82;;;22.80;44.90;;;;;;4977488;28;20297;-76
2021/10/25 13:08:01;;;;;;;1.25;0.93;;;22.50;45.80;;;;;;4978118;28;20196;-73
2021/10/25 13:10:29;;;;;;;0.98;0.75;;;22.10;45.70;;;;;;4980146;28;20189;-75
2021/10/25 13:12:57;;;;;;;0.88;0.70;;;21.80;46.40;;;;;;4977347;28;20393;-75
2021/10/25 13:15:24;;;;;;;0.63;0.63;;;21.90;48.20;;;;;;4977959;28;20225;-75
2021/10/25 13:17:54;;;;;;;0.73;0.60;;;21.80;46.40;;;;;;4975821;28;20618;-75
2021/10/25 13:20:24;;;;;;;2.95;1.02;;;21.60;47.50;;;;;;4978275;28;20192;-75
2021/10/25 13:22:52;;;;;;;1.23;1.15;;;21.50;46.60;;;;;;4981591;28;20184;-76
2021/10/25 13:25:19;;;;;;;0.85;0.85;;;21.40;47.40;;;;;;4972133;28;20209;-74
2021/10/25 13:27:45;;;;;;;0.60;0.60;;;21.10;46.30;;;;;;4978768;28;20236;-80
2021/10/25 13:30:13;;;;;;;3.65;0.80;;;20.90;46.50;;;;;;4976637;28;20759;-75
2021/10/25 13:32:39;;;;;;;1.27;1.02;;;20.60;48.60;;;;;;4981355;28;20293;-77
2021/10/25 13:35:08;;;;;;;1.52;0.88;;;20.60;48.70;;;;;;4980406;28;20846;-76
2021/10/25 13:37:35;;;;;;;0.95;0.55;;;20.50;48.80;;;;;;4987928;28;20228;-75
2021/10/25 13:40:01;;;;;;;0.73;0.73;;;20.50;46.80;;;;;;5023181;28;20215;-75
2021/10/25 13:42:26;;;;;;;0.82;0.82;;;20.40;48.00;;;;;;5023126;28;20183;-74
2021/10/25 13:44:52;;;;;;;0.82;0.80;;;20.40;46.20;;;;;;5021211;28;20615;-74
2021/10/25 13:47:19;;;;;;;0.80;0.80;;;20.20;48.20;;;;;;5023541;28;20184;-74
2021/10/25 13:49:44;;;;;;;2.95;0.95;;;20.30;48.60;;;;;;5022104;28;20180;-74
2021/10/25 13:52:11;;;;;;;1.15;0.77;;;20.30;48.80;;;;;;5024553;28;20188;-75
2021/10/25 13:54:38;;;;;;;0.60;0.60;;;20.10;48.90;;;;;;5023491;28;20343;-75
2021/10/25 13:57:08;;;;;;;0.63;0.60;;;20.10;47.90;;;;;;5025224;28;20172;-75
2021/10/25 13:59:35;;;;;;;0.65;0.65;;;20.00;46.60;;;;;;5024021;28;20628;-74
2021/10/25 14:02:09;;;;;;;0.50;0.50;;;19.40;46.20;;;;;;5022936;28;20684;-74
2021/10/25 14:04:40;;;;;;;0.80;0.80;;;18.90;46.00;;;;;;5024753;28;20678;-74
2021/10/25 14:07:11;;;;;;;0.77;0.77;;;18.60;46.90;;;;;;5024959;28;20295;-74
2021/10/25 14:09:39;;;;;;;0.65;0.60;;;18.30;47.60;;;;;;5026353;28;20563;-74
2021/10/25 14:12:05;;;;;;;0.85;0.73;;;18.20;47.60;;;;;;5025707;28;20211;-74
2021/10/25 14:14:31;;;;;;;0.77;0.77;;;17.80;48.60;;;;;;5024156;28;20803;-74
2021/10/25 14:16:57;;;;;;;0.60;0.60;;;17.50;49.30;;;;;;5023216;28;20191;-74
2021/10/25 14:19:25;;;;;;;1.35;0.70;;;17.30;50.50;;;;;;5023581;28;20184;-74
2021/10/25 14:21:51;;;;;;;0.65;0.63;;;17.40;51.10;;;;;;5024597;28;20599;-74
2021/10/25 14:24:18;;;;;;;2.90;0.90;;;17.40;50.80;;;;;;5025641;28;20254;-74
2021/10/25 14:26:44;;;;;;;0.70;0.70;;;17.40;51.00;;;;;;5023416;28;20180;-74
2021/10/25 14:29:11;;;;;;;1.85;0.80;;;17.30;51.70;;;;;;5024954;28;20672;-71
2021/10/25 14:31:38;;;;;;;3.28;0.90;;;17.10;49.90;;;;;;5024328;28;20630;-75
2021/10/25 14:34:05;;;;;;;2.22;0.70;;;16.60;50.70;;;;;;5022023;28;20214;-74
2021/10/25 14:36:31;;;;;;;1.13;1.10;;;16.30;51.30;;;;;;5024277;28;20274;-75
2021/10/25 14:44:39;;;;;;;0.90;0.90;;;15.70;52.50;;;;;;4972221;28;20796;-77
2021/10/25 14:57:23;;;;;;;1.13;1.13;;;14.40;54.00;;;;;;4978224;28;20182;-77
2021/10/25 14:59:51;;;;;;;1.00;1.00;;;14.20;55.10;;;;;;4973755;28;20201;-77
2021/10/25 15:02:18;;;;;;;0.88;0.88;;;13.90;55.90;;;;;;4973698;28;20249;-80
2021/10/25 15:04:44;;;;;;;0.98;0.98;;;13.70;56.50;;;;;;4971332;28;20189;-78
2021/10/25 15:07:10;;;;;;;1.38;1.20;;;13.40;57.20;;;;;;4969913;28;20242;-75